Time;durP1;ratioP1;P1;durP2;ratioP2;P2;SDS_P1;SDS_P2;PMS_P1;PMS_P2;Temp;Humidity;BMP_temperature;BMP_pressure;BME280_temperature;BME280_humidity;BME280_pressure;Samples;Min_cycle;Max_cycle;Signal;HPM_P1;HPM_P2
2022/06/21 00:00:27;;;;;;;2.40;1.43;;;20.10;99.90;;;;;;1026786;28;20776;-72
2022/06/21 00:00:59;;;;;;;2.92;1.48;;;20.10;99.90;;;;;;1026632;28;20027;-72
2022/06/21 00:01:31;;;;;;;1.23;1.05;;;20.40;99.90;;;;;;1026357;28;20026;-71
2022/06/21 00:02:02;;;;;;;3.28;1.40;;;20.30;99.90;;;;;;1026337;28;20541;-73
2022/06/21 00:02:33;;;;;;;3.03;1.40;;;20.20;99.90;;;;;;1026335;28;20027;-73
2022/06/21 00:03:13;;;;;;;1.73;1.17;;;20.00;99.90;;;;;;1026300;28;20387;-71
2022/06/21 00:03:46;;;;;;;4.70;1.83;;;20.00;99.90;;;;;;1026571;28;20113;-70
2022/06/21 00:04:17;;;;;;;3.03;1.65;;;20.00;99.90;;;;;;1026695;28;20062;-72
2022/06/21 00:04:48;;;;;;;2.45;1.60;;;19.80;99.90;;;;;;1026755;28;20033;-71
2022/06/21 00:05:25;;;;;;;2.77;1.80;;;20.00;99.90;;;;;;1026618;28;20517;-73
2022/06/21 00:05:55;;;;;;;2.83;1.45;;;20.00;99.90;;;;;;1027477;28;20034;-72
2022/06/21 00:06:27;;;;;;;2.07;1.30;;;20.20;99.90;;;;;;1026769;28;20050;-73
2022/06/21 00:07:02;;;;;;;1.77;1.25;;;19.70;99.90;;;;;;1027121;28;20660;-72
2022/06/21 00:07:32;;;;;;;3.00;1.75;;;20.10;99.90;;;;;;1023091;29;20396;-72
2022/06/21 00:08:05;;;;;;;2.20;1.10;;;20.10;99.90;;;;;;1019915;29;20531;-73
2022/06/21 00:08:36;;;;;;;3.78;1.60;;;20.10;99.90;;;;;;1023198;29;20162;-72
2022/06/21 00:09:11;;;;;;;1.88;1.20;;;20.10;99.90;;;;;;1023844;28;20023;-73
2022/06/21 00:09:41;;;;;;;4.53;1.65;;;20.10;99.90;;;;;;1027204;28;20441;-72
2022/06/21 00:10:17;;;;;;;4.17;1.60;;;19.90;99.90;;;;;;1027653;28;20053;-73
2022/06/21 00:10:48;;;;;;;2.38;1.55;;;20.00;99.90;;;;;;1027447;28;20035;-73
2022/06/21 00:11:24;;;;;;;2.40;1.20;;;20.10;99.90;;;;;;1027265;28;20019;-73
2022/06/21 00:11:54;;;;;;;2.90;1.48;;;20.10;99.90;;;;;;1027319;28;20118;-73
2022/06/21 00:12:26;;;;;;;3.23;1.40;;;20.00;99.90;;;;;;1027101;28;20026;-73
2022/06/21 00:12:56;;;;;;;2.17;1.85;;;20.10;99.90;;;;;;1027211;28;20038;-72
2022/06/21 00:13:34;;;;;;;3.17;1.60;;;19.90;99.90;;;;;;1027272;28;20070;-73
2022/06/21 00:14:04;;;;;;;3.45;1.50;;;19.80;99.90;;;;;;1027186;28;20025;-71
2022/06/21 00:14:35;;;;;;;3.57;1.40;;;19.90;99.90;;;;;;1031211;28;20248;-72
2022/06/21 00:15:06;;;;;;;3.73;1.83;;;20.10;99.90;;;;;;1027232;28;20441;-72
2022/06/21 00:15:37;;;;;;;3.65;1.58;;;20.00;99.90;;;;;;1023183;28;20031;-73
2022/06/21 00:16:12;;;;;;;4.72;1.77;;;19.70;99.90;;;;;;1023334;29;20047;-73
2022/06/21 00:16:42;;;;;;;2.50;1.50;;;20.00;99.90;;;;;;1023771;28;20027;-72
2022/06/21 00:17:17;;;;;;;2.77;1.53;;;20.10;99.90;;;;;;1027400;28;20054;-71
2022/06/21 00:17:49;;;;;;;2.72;1.50;;;20.00;99.90;;;;;;1027049;28;20130;-73
2022/06/21 00:18:23;;;;;;;3.10;1.27;;;20.00;99.90;;;;;;1023991;28;20027;-73
2022/06/21 00:18:54;;;;;;;1.95;1.30;;;19.90;99.90;;;;;;1022621;28;20353;-72
2022/06/21 00:19:25;;;;;;;2.45;1.40;;;20.10;99.90;;;;;;1023285;29;20117;-73
2022/06/21 00:19:56;;;;;;;2.37;1.40;;;20.00;99.90;;;;;;1023847;28;20446;-72
2022/06/21 00:20:27;;;;;;;2.57;1.40;;;19.90;99.90;;;;;;1027219;28;20026;-72
2022/06/21 00:20:58;;;;;;;3.08;1.33;;;19.90;99.90;;;;;;1026975;28;20085;-72
2022/06/21 00:21:35;;;;;;;1.63;1.33;;;20.00;99.90;;;;;;1027169;28;20149;-73
2022/06/21 00:22:08;;;;;;;1.90;1.08;;;19.90;99.90;;;;;;1026955;28;20018;-72
2022/06/21 00:22:39;;;;;;;2.33;1.10;;;19.70;99.90;;;;;;1023283;29;20027;-73
2022/06/21 00:23:15;;;;;;;2.22;1.15;;;19.80;99.90;;;;;;1024200;28;20023;-72
2022/06/21 00:23:50;;;;;;;1.65;1.20;;;19.90;99.90;;;;;;1027165;28;20122;-72
2022/06/21 00:24:21;;;;;;;2.42;1.50;;;20.00;99.90;;;;;;1027547;28;20018;-71
2022/06/21 00:24:51;;;;;;;2.43;1.43;;;19.90;99.90;;;;;;1027557;28;20077;-72
2022/06/21 00:25:25;;;;;;;2.53;1.20;;;19.80;99.90;;;;;;1027532;28;20031;-71
2022/06/21 00:25:57;;;;;;;2.72;1.30;;;19.80;99.90;;;;;;1027169;28;20023;-72
2022/06/21 00:26:30;;;;;;;2.88;1.65;;;19.80;99.90;;;;;;1026990;28;20162;-72
2022/06/21 00:27:02;;;;;;;6.72;1.63;;;19.90;99.90;;;;;;1027095;28;20046;-72
2022/06/21 00:27:32;;;;;;;2.50;1.65;;;19.70;99.90;;;;;;1027302;28;20047;-72
2022/06/21 00:28:03;;;;;;;3.57;1.77;;;19.80;99.90;;;;;;1030846;28;20030;-73
2022/06/21 00:28:34;;;;;;;2.30;1.50;;;19.90;99.90;;;;;;1031228;28;20516;-71
2022/06/21 00:29:04;;;;;;;2.50;1.30;;;19.70;99.90;;;;;;1031179;28;20065;-71
2022/06/21 00:29:35;;;;;;;2.17;1.27;;;19.90;99.90;;;;;;1031045;28;20037;-71
2022/06/21 00:30:06;;;;;;;3.57;1.80;;;20.10;99.90;;;;;;1031102;28;20028;-71
2022/06/21 00:30:39;;;;;;;3.08;1.23;;;19.90;99.90;;;;;;1031192;28;20027;-72
2022/06/21 00:31:19;;;;;;;4.97;1.70;;;19.80;99.90;;;;;;1031135;28;20409;-70
2022/06/21 00:31:49;;;;;;;2.25;1.30;;;19.80;99.90;;;;;;1029602;28;20034;-72
2022/06/21 00:32:20;;;;;;;3.43;1.50;;;19.90;99.90;;;;;;1027520;28;20030;-71
2022/06/21 00:32:54;;;;;;;2.03;1.20;;;19.90;99.90;;;;;;1031110;28;20038;-71
2022/06/21 00:33:25;;;;;;;1.98;1.15;;;19.80;99.90;;;;;;1031245;28;20018;-71
2022/06/21 00:33:57;;;;;;;2.55;1.60;;;19.90;99.90;;;;;;1031116;28;20509;-71
2022/06/21 00:34:28;;;;;;;1.60;1.05;;;19.40;99.90;;;;;;1030401;28;20508;-71
2022/06/21 00:34:59;;;;;;;2.67;1.27;;;19.80;99.90;;;;;;1031142;28;20498;-73
2022/06/21 00:35:29;;;;;;;4.73;1.47;;;19.90;99.90;;;;;;1026944;28;20070;-71
2022/06/21 00:36:03;;;;;;;2.67;1.60;;;20.00;99.90;;;;;;1027217;28;20391;-73
2022/06/21 00:36:36;;;;;;;3.38;1.60;;;19.90;99.90;;;;;;1023034;28;20074;-72
2022/06/21 00:37:16;;;;;;;3.53;1.33;;;19.50;99.90;;;;;;1023827;28;20674;-72
2022/06/21 00:37:48;;;;;;;2.78;1.20;;;19.80;99.90;;;;;;1026924;28;20034;-72
2022/06/21 00:38:34;;;;;;;3.05;1.40;;;20.00;99.90;;;;;;1027175;28;20030;-72
2022/06/21 00:39:06;;;;;;;2.35;1.15;;;20.00;99.90;;;;;;1030595;28;20559;-70
2022/06/21 00:39:37;;;;;;;3.65;1.80;;;19.90;99.90;;;;;;1028604;28;20523;-71
2022/06/21 00:40:22;;;;;;;3.17;1.47;;;20.00;99.90;;;;;;1027534;28;20494;-71
2022/06/21 00:40:55;;;;;;;2.65;1.38;;;19.90;99.90;;;;;;1026939;28;20027;-71
2022/06/21 00:41:44;;;;;;;3.35;1.40;;;20.00;99.90;;;;;;1026985;28;20033;-72
2022/06/21 00:42:30;;;;;;;2.90;1.70;;;20.00;99.90;;;;;;1027186;28;20027;-71
2022/06/21 00:43:16;;;;;;;3.67;1.40;;;19.50;99.90;;;;;;1023399;28;20106;-72
2022/06/21 00:43:50;;;;;;;4.00;1.65;;;20.00;99.90;;;;;;1026955;28;20042;-72
2022/06/21 00:44:34;;;;;;;4.10;1.30;;;20.00;99.90;;;;;;1027100;28;20134;-71
2022/06/21 00:45:15;;;;;;;3.35;1.60;;;19.90;99.90;;;;;;1027086;28;20525;-72
2022/06/21 00:45:48;;;;;;;3.67;1.52;;;19.90;99.90;;;;;;1027091;28;20022;-72
2022/06/21 00:46:44;;;;;;;3.72;1.50;;;19.90;99.90;;;;;;1026744;28;20494;-72
2022/06/21 00:47:27;;;;;;;1.83;1.63;;;19.90;99.90;;;;;;1027463;28;20030;-72
2022/06/21 00:48:12;;;;;;;3.30;1.73;;;19.80;99.90;;;;;;1027361;28;20066;-72
2022/06/21 00:48:44;;;;;;;4.22;2.08;;;19.90;99.90;;;;;;1027396;28;20022;-72
2022/06/21 00:49:28;;;;;;;2.40;1.50;;;19.90;99.90;;;;;;1027014;28;20050;-72
2022/06/21 00:50:12;;;;;;;3.42;1.88;;;19.80;99.90;;;;;;1027222;28;20026;-72
2022/06/21 00:50:47;;;;;;;1.75;1.23;;;19.80;99.90;;;;;;1026777;28;20517;-72
2022/06/21 00:51:24;;;;;;;2.20;1.33;;;19.80;99.90;;;;;;1027210;28;20094;-73
2022/06/21 00:52:06;;;;;;;2.15;1.38;;;19.80;99.90;;;;;;1027106;28;20030;-72
2022/06/21 00:52:42;;;;;;;3.53;1.58;;;19.80;99.90;;;;;;1027332;28;20083;-73
2022/06/21 00:53:15;;;;;;;2.33;1.45;;;19.70;99.90;;;;;;1027537;28;20033;-70
2022/06/21 00:54:15;;;;;;;3.75;1.75;;;19.70;99.90;;;;;;1027442;28;20034;-71
2022/06/21 00:54:59;;;;;;;2.92;1.73;;;19.80;99.90;;;;;;1027309;28;20074;-72
2022/06/21 00:55:49;;;;;;;3.90;1.30;;;19.70;99.90;;;;;;1027214;28;20031;-72
2022/06/21 00:56:34;;;;;;;3.13;1.77;;;19.80;99.90;;;;;;1027525;28;20078;-72
2022/06/21 00:57:15;;;;;;;2.85;1.73;;;19.60;99.90;;;;;;1027428;28;20665;-72
2022/06/21 00:57:51;;;;;;;2.88;1.65;;;19.60;99.90;;;;;;1026968;28;20019;-72
2022/06/21 00:58:28;;;;;;;1.92;1.58;;;19.80;99.90;;;;;;1027185;28;20018;-72
2022/06/21 00:59:28;;;;;;;2.58;1.45;;;19.60;99.90;;;;;;1027124;28;20028;-72
2022/06/21 01:00:27;;;;;;;3.40;1.30;;;19.70;99.90;;;;;;1027331;28;20066;-72
2022/06/21 01:01:18;;;;;;;2.58;1.52;;;19.60;99.90;;;;;;1027244;28;20023;-72
2022/06/21 01:01:53;;;;;;;3.38;1.77;;;19.70;99.90;;;;;;1027359;28;20019;-72
2022/06/21 01:02:32;;;;;;;2.78;1.58;;;19.50;99.90;;;;;;1027231;28;20066;-72
2022/06/21 01:03:12;;;;;;;2.45;1.40;;;19.60;99.90;;;;;;1027161;28;20150;-70
2022/06/21 01:03:54;;;;;;;3.10;1.80;;;19.70;99.90;;;;;;1026795;28;20026;-71
2022/06/21 01:04:47;;;;;;;3.20;1.67;;;19.70;99.90;;;;;;1026938;28;20483;-72
2022/06/21 01:05:17;;;;;;;3.22;1.63;;;19.70;99.90;;;;;;1027062;28;20050;-71
2022/06/21 01:05:49;;;;;;;2.13;1.53;;;19.70;99.90;;;;;;1027418;28;20671;-72
2022/06/21 01:06:47;;;;;;;3.38;2.15;;;19.60;99.90;;;;;;1027490;28;20118;-72
2022/06/21 01:07:18;;;;;;;2.85;1.52;;;19.60;99.90;;;;;;1024952;28;20031;-72
2022/06/21 01:07:54;;;;;;;3.60;2.03;;;19.60;99.90;;;;;;1027389;28;20046;-71
2022/06/21 01:08:28;;;;;;;3.38;1.83;;;19.60;99.90;;;;;;1026980;28;20029;-72
2022/06/21 01:09:11;;;;;;;4.93;1.67;;;19.60;99.90;;;;;;1027488;28;20054;-71
2022/06/21 01:09:52;;;;;;;1.77;1.23;;;19.60;99.90;;;;;;1026622;28;20022;-71
2022/06/21 01:10:24;;;;;;;3.13;1.20;;;19.60;99.90;;;;;;1026689;28;20023;-72
2022/06/21 01:11:01;;;;;;;2.75;1.40;;;19.20;99.90;;;;;;1027060;28;20097;-72
2022/06/21 01:11:42;;;;;;;1.30;1.20;;;19.60;99.90;;;;;;1027080;28;20031;-72
2022/06/21 01:12:17;;;;;;;3.88;1.58;;;19.50;99.90;;;;;;1027479;28;20386;-72
2022/06/21 01:12:56;;;;;;;4.30;1.60;;;19.70;99.90;;;;;;1026742;28;20612;-72
2022/06/21 01:13:31;;;;;;;3.78;1.50;;;19.70;99.90;;;;;;1026978;28;20015;-72
2022/06/21 01:14:02;;;;;;;2.08;1.58;;;19.60;99.90;;;;;;1027027;28;20022;-72
2022/06/21 01:14:35;;;;;;;1.75;1.50;;;19.80;99.90;;;;;;1027045;28;20165;-71
2022/06/21 01:15:12;;;;;;;2.67;1.25;;;19.30;99.90;;;;;;1027291;28;20029;-73
2022/06/21 01:15:45;;;;;;;1.83;1.23;;;19.60;99.90;;;;;;1026984;28;20015;-72
2022/06/21 01:16:18;;;;;;;2.88;1.55;;;19.70;99.90;;;;;;1027183;28;20022;-72
2022/06/21 01:16:49;;;;;;;2.35;1.58;;;19.70;99.90;;;;;;1026595;28;20115;-73
2022/06/21 01:17:20;;;;;;;2.15;1.50;;;19.60;99.90;;;;;;1026534;28;20026;-72
2022/06/21 01:17:57;;;;;;;2.17;1.63;;;19.60;99.90;;;;;;1026691;28;20026;-71
2022/06/21 01:18:28;;;;;;;1.88;1.50;;;19.70;99.90;;;;;;1027334;28;20026;-71
2022/06/21 01:19:01;;;;;;;2.35;1.40;;;19.70;99.90;;;;;;1026959;28;20117;-73
2022/06/21 01:19:42;;;;;;;2.65;1.52;;;19.70;99.90;;;;;;1026862;28;20023;-72
2022/06/21 01:20:19;;;;;;;3.38;2.20;;;19.70;99.90;;;;;;1027169;28;20023;-72
2022/06/21 01:20:58;;;;;;;2.35;1.38;;;19.60;99.90;;;;;;1027135;28;20145;-73
2022/06/21 01:21:30;;;;;;;1.52;1.42;;;19.70;99.90;;;;;;1027496;28;20109;-73
2022/06/21 01:22:16;;;;;;;2.00;1.30;;;19.70;99.90;;;;;;1030581;28;20024;-73
2022/06/21 01:23:16;;;;;;;2.15;1.42;;;19.70;99.90;;;;;;1030810;28;20057;-72
2022/06/21 01:24:11;;;;;;;2.30;1.60;;;19.60;99.90;;;;;;1030780;28;20034;-71
2022/06/21 01:24:57;;;;;;;2.67;1.60;;;19.60;99.90;;;;;;1030914;28;20023;-69
2022/06/21 01:25:45;;;;;;;2.55;1.52;;;19.90;99.90;;;;;;1030773;28;20030;-73
2022/06/21 01:26:50;;;;;;;3.92;1.72;;;19.50;99.90;;;;;;1030896;28;20065;-72
2022/06/21 01:27:21;;;;;;;2.22;1.50;;;19.60;99.90;;;;;;1031216;28;20076;-72
2022/06/21 01:27:55;;;;;;;2.80;1.50;;;19.60;99.90;;;;;;1031253;28;20030;-71
2022/06/21 01:28:26;;;;;;;2.55;1.27;;;19.50;99.90;;;;;;1031444;28;20077;-73
2022/06/21 01:28:58;;;;;;;2.35;1.50;;;19.50;99.90;;;;;;1030870;28;20034;-72
2022/06/21 01:29:32;;;;;;;2.67;1.58;;;19.50;99.90;;;;;;1030918;28;20065;-73
2022/06/21 01:30:03;;;;;;;3.30;1.58;;;19.50;99.90;;;;;;1030858;28;20038;-73
2022/06/21 01:30:35;;;;;;;3.65;2.10;;;19.50;99.90;;;;;;1030816;28;20033;-71
2022/06/21 01:31:07;;;;;;;2.53;1.40;;;19.70;99.90;;;;;;1030949;28;20049;-74
2022/06/21 01:31:38;;;;;;;3.15;1.75;;;19.40;99.90;;;;;;1030938;28;20022;-73
2022/06/21 01:32:09;;;;;;;1.73;1.30;;;19.40;99.90;;;;;;1031285;28;20023;-72
2022/06/21 01:32:40;;;;;;;2.80;1.80;;;19.50;99.90;;;;;;1031284;28;20022;-72
2022/06/21 01:33:14;;;;;;;2.13;1.50;;;19.40;99.90;;;;;;1031326;28;20342;-74
2022/06/21 01:33:45;;;;;;;2.30;1.77;;;19.50;99.90;;;;;;1030580;28;20583;-73
2022/06/21 01:34:19;;;;;;;2.63;1.60;;;19.50;99.90;;;;;;1027444;28;20030;-73
2022/06/21 01:34:50;;;;;;;2.55;1.50;;;19.40;99.90;;;;;;1026807;28;20066;-74
2022/06/21 01:35:34;;;;;;;2.30;1.40;;;19.80;99.90;;;;;;1027054;28;20086;-72
2022/06/21 01:36:13;;;;;;;3.55;1.75;;;19.50;99.90;;;;;;1027336;28;20058;-72
2022/06/21 01:36:45;;;;;;;3.15;1.85;;;19.50;99.90;;;;;;1026450;28;20565;-72
2022/06/21 01:37:23;;;;;;;2.15;1.70;;;19.40;99.90;;;;;;1027218;28;20109;-73
2022/06/21 01:37:55;;;;;;;2.13;1.50;;;19.40;99.90;;;;;;1026875;28;20037;-73
2022/06/21 01:38:36;;;;;;;3.05;1.60;;;19.10;99.90;;;;;;1026846;28;20053;-70
2022/06/21 01:39:14;;;;;;;2.45;1.52;;;19.40;99.90;;;;;;1026920;28;20668;-72
2022/06/21 01:40:01;;;;;;;2.38;1.45;;;19.40;99.90;;;;;;1026581;28;20054;-73
2022/06/21 01:40:39;;;;;;;2.35;1.50;;;19.30;99.90;;;;;;1026980;28;20038;-71
2022/06/21 01:41:15;;;;;;;2.75;1.90;;;19.30;99.90;;;;;;1022881;29;20031;-73
2022/06/21 01:41:58;;;;;;;2.88;1.30;;;19.20;99.90;;;;;;1026808;28;20070;-73
2022/06/21 01:42:35;;;;;;;3.42;1.70;;;19.40;99.90;;;;;;1026979;28;20101;-73
2022/06/21 01:43:15;;;;;;;2.50;1.60;;;19.30;99.90;;;;;;1027004;28;20038;-72
2022/06/21 01:43:49;;;;;;;2.92;1.52;;;19.40;99.90;;;;;;1027034;28;20054;-73
2022/06/21 01:44:30;;;;;;;2.80;1.42;;;19.60;99.90;;;;;;1027194;28;20059;-72
2022/06/21 01:45:07;;;;;;;2.83;1.60;;;19.30;99.90;;;;;;1027230;28;20030;-71
2022/06/21 01:45:43;;;;;;;2.05;1.30;;;19.40;99.90;;;;;;1027192;28;20037;-73
2022/06/21 01:46:19;;;;;;;3.00;1.60;;;19.30;99.90;;;;;;1026708;28;20037;-73
2022/06/21 01:46:50;;;;;;;2.90;1.80;;;19.30;99.90;;;;;;1026746;28;20105;-72
2022/06/21 01:47:28;;;;;;;2.83;1.70;;;19.30;99.90;;;;;;1022853;29;20055;-73
2022/06/21 01:48:02;;;;;;;2.70;1.70;;;19.30;99.90;;;;;;1020987;29;20016;-74
2022/06/21 01:48:42;;;;;;;2.22;1.38;;;19.10;99.90;;;;;;1019162;29;20034;-73
2022/06/21 01:49:17;;;;;;;2.90;1.70;;;19.20;99.90;;;;;;1021747;29;20016;-73
2022/06/21 01:49:55;;;;;;;3.85;1.48;;;19.30;99.90;;;;;;1022944;29;20014;-74
2022/06/21 01:50:26;;;;;;;3.97;2.08;;;19.30;99.90;;;;;;1023076;29;20012;-73
2022/06/21 01:51:09;;;;;;;2.80;1.60;;;19.40;99.90;;;;;;1023940;29;20047;-74
2022/06/21 01:51:49;;;;;;;3.72;1.55;;;19.30;99.90;;;;;;1023253;29;20023;-71
2022/06/21 01:52:24;;;;;;;2.25;1.60;;;19.40;99.90;;;;;;1023283;29;20016;-73
2022/06/21 01:52:55;;;;;;;2.70;1.73;;;19.40;99.90;;;;;;1023332;29;20074;-74
2022/06/21 01:53:27;;;;;;;3.28;1.42;;;19.40;99.90;;;;;;1023492;29;20592;-73
2022/06/21 01:53:59;;;;;;;2.38;1.55;;;19.20;99.90;;;;;;1023255;29;20117;-74
2022/06/21 01:54:36;;;;;;;3.40;1.95;;;19.40;99.90;;;;;;1022997;29;20078;-74
2022/06/21 01:55:13;;;;;;;3.22;1.98;;;19.30;99.90;;;;;;1023598;28;20019;-73
2022/06/21 01:55:52;;;;;;;3.38;1.73;;;19.30;99.90;;;;;;1026859;28;20128;-73
2022/06/21 01:56:28;;;;;;;2.22;1.60;;;18.90;99.90;;;;;;1027185;28;20025;-73
2022/06/21 01:56:59;;;;;;;2.53;1.55;;;19.30;99.90;;;;;;1026865;28;20111;-73
2022/06/21 01:57:30;;;;;;;3.35;1.83;;;19.40;99.90;;;;;;1026787;28;20046;-73
2022/06/21 01:58:04;;;;;;;2.28;1.90;;;19.30;99.90;;;;;;1026876;28;20074;-73
2022/06/21 01:58:41;;;;;;;4.55;2.35;;;19.30;99.90;;;;;;1027227;28;20053;-73
2022/06/21 01:59:16;;;;;;;2.70;1.70;;;19.30;99.90;;;;;;1027316;28;20102;-75
2022/06/21 01:59:49;;;;;;;2.97;1.75;;;19.20;99.90;;;;;;1027126;28;20102;-72
2022/06/21 02:00:20;;;;;;;4.45;1.95;;;19.20;99.90;;;;;;1027448;28;20022;-75
2022/06/21 02:00:58;;;;;;;2.93;1.57;;;19.40;99.90;;;;;;1026925;28;20299;-74
2022/06/21 02:01:41;;;;;;;2.55;1.92;;;19.40;99.90;;;;;;1027675;28;20470;-74
2022/06/21 02:02:18;;;;;;;1.85;1.58;;;19.50;99.90;;;;;;1027332;28;20042;-73
2022/06/21 02:02:54;;;;;;;2.53;1.52;;;19.40;99.90;;;;;;1026835;28;20158;-73
2022/06/21 02:03:30;;;;;;;2.60;1.60;;;19.10;99.90;;;;;;1027257;28;20050;-73
2022/06/21 02:04:03;;;;;;;3.85;1.65;;;19.40;99.90;;;;;;1027745;28;20018;-72
2022/06/21 02:04:42;;;;;;;2.20;1.75;;;19.20;99.90;;;;;;1027320;28;20015;-74
2022/06/21 02:05:18;;;;;;;2.63;1.98;;;19.30;99.90;;;;;;1030797;28;20572;-74
2022/06/21 02:05:56;;;;;;;3.25;1.80;;;19.20;99.90;;;;;;1030729;28;20014;-72
2022/06/21 02:06:31;;;;;;;2.03;1.50;;;19.30;99.90;;;;;;1030077;28;20042;-72
2022/06/21 02:07:05;;;;;;;3.30;1.50;;;19.20;99.90;;;;;;1026735;28;20026;-73
2022/06/21 02:07:43;;;;;;;2.47;1.50;;;19.30;99.90;;;;;;1027162;28;20073;-73
2022/06/21 02:08:17;;;;;;;2.75;1.55;;;19.00;99.90;;;;;;1026740;28;20054;-72
2022/06/21 02:08:55;;;;;;;3.15;1.80;;;19.10;99.90;;;;;;1026976;28;20038;-71
2022/06/21 02:09:33;;;;;;;1.75;1.40;;;19.20;99.90;;;;;;1026808;28;20030;-72
2022/06/21 02:10:10;;;;;;;2.55;1.75;;;19.20;99.90;;;;;;1026754;28;20019;-74
2022/06/21 02:10:56;;;;;;;4.40;2.15;;;19.30;99.90;;;;;;1026942;28;20058;-74
2022/06/21 02:11:47;;;;;;;2.65;1.60;;;19.20;99.90;;;;;;1027189;28;20471;-71
2022/06/21 02:12:17;;;;;;;2.55;1.88;;;19.20;99.90;;;;;;1027042;28;20027;-72
2022/06/21 02:13:13;;;;;;;3.27;1.70;;;19.20;99.90;;;;;;1026939;28;20101;-72
2022/06/21 02:14:28;;;;;;;2.92;1.77;;;19.20;99.90;;;;;;1026451;28;20109;-74
2022/06/21 02:14:48;;;;;;;2.60;1.60;;;19.20;99.90;;;;;;1026607;28;20035;-70
2022/06/21 02:15:35;;;;;;;3.75;1.95;;;19.20;99.90;;;;;;1026995;28;20113;-74
2022/06/21 02:16:09;;;;;;;;;;;19.20;99.90;;;;;;1027153;28;20031;-74
2022/06/21 02:16:43;;;;;;;2.42;1.58;;;19.20;99.90;;;;;;1026929;28;20293;-73
2022/06/21 02:17:25;;;;;;;3.42;2.03;;;19.30;99.90;;;;;;1027024;28;20015;-72
2022/06/21 02:17:58;;;;;;;3.20;1.70;;;19.10;99.90;;;;;;1026681;28;20033;-73
2022/06/21 02:18:32;;;;;;;3.45;1.83;;;19.00;99.90;;;;;;1026760;28;20035;-73
2022/06/21 02:19:03;;;;;;;2.75;1.85;;;;;;;;;;1026870;28;20026;-74
2022/06/21 02:19:48;;;;;;;3.20;1.83;;;19.20;99.90;;;;;;1027070;28;20058;-72
2022/06/21 02:20:25;;;;;;;2.20;1.70;;;18.80;99.90;;;;;;1027191;28;20057;-75
2022/06/21 02:21:16;;;;;;;3.13;1.63;;;19.30;99.90;;;;;;1026526;28;20023;-73
2022/06/21 02:21:46;;;;;;;2.60;1.67;;;19.10;99.90;;;;;;1028951;28;20137;-72
2022/06/21 02:22:22;;;;;;;2.53;1.50;;;19.10;99.90;;;;;;1030883;28;20019;-73
2022/06/21 02:22:53;;;;;;;2.80;1.63;;;19.20;99.90;;;;;;1030626;28;20019;-72
2022/06/21 02:23:24;;;;;;;3.97;2.07;;;19.10;99.90;;;;;;1030740;28;20090;-72
2022/06/21 02:23:57;;;;;;;2.65;1.92;;;19.40;99.90;;;;;;1030674;28;20117;-72
2022/06/21 02:24:30;;;;;;;3.42;2.00;;;18.80;99.90;;;;;;1031054;28;20109;-73
2022/06/21 02:25:02;;;;;;;2.55;1.73;;;19.00;99.90;;;;;;1030570;28;20040;-72
2022/06/21 02:25:34;;;;;;;3.75;1.90;;;19.30;99.90;;;;;;1030915;28;20010;-72
2022/06/21 02:26:04;;;;;;;1.50;1.38;;;19.10;99.90;;;;;;1030569;28;20026;-72
2022/06/21 02:26:35;;;;;;;2.63;1.67;;;19.00;99.90;;;;;;1030745;28;20027;-73
2022/06/21 02:27:06;;;;;;;2.43;1.70;;;19.10;99.90;;;;;;1030787;28;20053;-73
2022/06/21 02:27:37;;;;;;;2.10;1.83;;;19.10;99.90;;;;;;1030487;28;20576;-73
2022/06/21 02:28:11;;;;;;;2.77;1.43;;;19.10;99.90;;;;;;1026709;28;20078;-73
2022/06/21 02:28:43;;;;;;;2.47;1.70;;;19.20;99.90;;;;;;1027131;28;20026;-73
2022/06/21 02:29:14;;;;;;;2.88;1.60;;;19.00;99.90;;;;;;1030821;28;20486;-72
2022/06/21 02:29:50;;;;;;;1.90;1.60;;;19.10;99.90;;;;;;1030892;28;20105;-72
2022/06/21 02:30:25;;;;;;;2.20;1.45;;;19.00;99.90;;;;;;1028373;28;20417;-72
2022/06/21 02:30:58;;;;;;;2.65;1.60;;;19.10;99.90;;;;;;1026853;28;20085;-72
2022/06/21 02:31:28;;;;;;;2.35;1.40;;;19.10;99.90;;;;;;1024281;28;20115;-73
2022/06/21 02:31:59;;;;;;;2.77;1.90;;;19.50;99.90;;;;;;1026968;28;20018;-73
2022/06/21 02:32:35;;;;;;;1.57;1.40;;;19.20;99.90;;;;;;1026573;28;20054;-73
2022/06/21 02:33:09;;;;;;;2.97;1.67;;;19.10;99.90;;;;;;1023423;28;20031;-72
2022/06/21 02:33:44;;;;;;;3.80;1.70;;;19.40;99.90;;;;;;1026672;28;20050;-73
2022/06/21 02:34:21;;;;;;;2.80;1.55;;;19.50;99.90;;;;;;1026681;28;20101;-73
2022/06/21 02:34:59;;;;;;;4.22;1.60;;;19.00;99.90;;;;;;1025258;28;20856;-73
2022/06/21 02:35:45;;;;;;;1.73;1.50;;;19.20;99.90;;;;;;1026576;28;20007;-73
2022/06/21 02:36:20;;;;;;;3.05;1.50;;;19.40;99.90;;;;;;1022795;29;20031;-73
2022/06/21 02:36:56;;;;;;;2.08;1.50;;;19.20;99.90;;;;;;1026049;28;20037;-73
2022/06/21 02:37:28;;;;;;;2.95;1.65;;;19.40;99.90;;;;;;1027152;28;20057;-73
2022/06/21 02:38:02;;;;;;;1.90;1.63;;;19.20;99.90;;;;;;1026885;28;20027;-73
2022/06/21 02:38:46;;;;;;;2.20;1.42;;;19.20;99.90;;;;;;1026508;28;20026;-74
2022/06/21 02:39:19;;;;;;;3.53;1.67;;;19.40;99.90;;;;;;1026980;28;20033;-72
2022/06/21 02:39:50;;;;;;;2.25;1.48;;;19.20;99.90;;;;;;1026749;28;20019;-73
2022/06/21 02:40:28;;;;;;;3.03;1.42;;;19.40;99.90;;;;;;1026783;28;20023;-72
2022/06/21 02:41:13;;;;;;;3.00;1.70;;;19.20;99.90;;;;;;1026727;28;20438;-73
2022/06/21 02:41:49;;;;;;;2.38;1.67;;;19.00;99.90;;;;;;1026497;28;20030;-73
2022/06/21 02:42:28;;;;;;;1.70;1.30;;;19.10;99.90;;;;;;1027305;28;20026;-75
2022/06/21 02:43:04;;;;;;;2.67;1.92;;;19.10;99.90;;;;;;1026904;28;20076;-73
2022/06/21 02:43:45;;;;;;;2.35;1.40;;;19.30;99.90;;;;;;1027154;28;20029;-71
2022/06/21 02:44:37;;;;;;;2.63;1.70;;;19.10;99.90;;;;;;1027122;28;20575;-72
2022/06/21 02:45:20;;;;;;;4.75;1.95;;;19.20;99.90;;;;;;1027321;28;20019;-72
2022/06/21 02:46:08;;;;;;;2.30;1.60;;;18.80;99.90;;;;;;1026437;28;20027;-72
2022/06/21 02:46:45;;;;;;;2.88;1.70;;;19.10;99.90;;;;;;1022816;29;20067;-73
2022/06/21 02:47:22;;;;;;;2.78;1.50;;;19.00;99.90;;;;;;1022743;29;20395;-72
2022/06/21 02:47:55;;;;;;;3.08;1.73;;;18.80;99.90;;;;;;1026365;28;20098;-72
2022/06/21 02:48:30;;;;;;;2.20;1.52;;;18.90;99.90;;;;;;1026610;28;20069;-73
2022/06/21 02:49:07;;;;;;;3.47;2.03;;;18.70;99.90;;;;;;1026703;28;20039;-71
2022/06/21 02:49:47;;;;;;;2.30;1.60;;;19.20;99.90;;;;;;1026987;28;20452;-72
2022/06/21 02:50:34;;;;;;;2.63;1.63;;;19.10;99.90;;;;;;1027374;28;20078;-72
2022/06/21 02:51:11;;;;;;;6.10;2.65;;;19.10;99.90;;;;;;1026952;28;20145;-73
2022/06/21 02:51:47;;;;;;;2.40;1.60;;;19.10;99.90;;;;;;1026884;28;20019;-71
2022/06/21 02:52:37;;;;;;;2.60;1.60;;;19.00;99.90;;;;;;1027194;28;20520;-73
2022/06/21 02:53:17;;;;;;;3.58;2.17;;;19.00;99.90;;;;;;1027264;28;20019;-73
2022/06/21 02:54:04;;;;;;;2.95;1.70;;;18.90;99.90;;;;;;1026517;28;20159;-73
2022/06/21 02:54:38;;;;;;;4.60;1.70;;;19.00;99.90;;;;;;1026557;28;20027;-72
2022/06/21 02:55:20;;;;;;;3.63;2.00;;;19.00;99.90;;;;;;1025772;28;20015;-73
2022/06/21 02:56:01;;;;;;;2.28;1.73;;;19.00;99.90;;;;;;1022690;28;20046;-73
2022/06/21 02:56:55;;;;;;;2.78;1.65;;;19.10;99.90;;;;;;1022997;28;20407;-73
2022/06/21 02:57:39;;;;;;;1.50;1.30;;;19.00;99.90;;;;;;1014378;29;20040;-72
2022/06/21 02:58:24;;;;;;;2.38;1.42;;;19.00;99.90;;;;;;1015338;28;20017;-74
2022/06/21 02:58:58;;;;;;;4.82;2.10;;;19.00;99.90;;;;;;1026563;28;20031;-74
2022/06/21 02:59:33;;;;;;;2.63;1.88;;;18.80;99.90;;;;;;1022395;28;20023;-72
2022/06/21 03:00:06;;;;;;;3.45;1.88;;;19.00;99.90;;;;;;1022614;28;20578;-72
2022/06/21 03:00:37;;;;;;;3.75;1.70;;;18.80;99.90;;;;;;1023016;29;20078;-73
2022/06/21 03:01:18;;;;;;;3.33;1.93;;;18.90;99.90;;;;;;1018583;29;20094;-73
2022/06/21 03:01:56;;;;;;;3.17;1.80;;;18.90;99.90;;;;;;1020497;29;20299;-73
2022/06/21 03:02:32;;;;;;;3.50;1.70;;;18.90;99.90;;;;;;1022601;29;20690;-73
2022/06/21 03:03:05;;;;;;;2.42;1.80;;;19.20;99.90;;;;;;1022699;29;20023;-73
2022/06/21 03:03:36;;;;;;;2.60;1.80;;;19.00;99.90;;;;;;1023015;28;20099;-70
2022/06/21 03:04:17;;;;;;;3.97;1.92;;;18.90;99.90;;;;;;1026461;28;20026;-73
2022/06/21 03:04:49;;;;;;;2.97;1.70;;;19.00;99.90;;;;;;1026516;28;20078;-73
2022/06/21 03:05:22;;;;;;;4.10;2.00;;;18.90;99.90;;;;;;1022698;28;20136;-73
2022/06/21 03:05:57;;;;;;;4.05;1.65;;;18.90;99.90;;;;;;1023143;29;20035;-73
2022/06/21 03:06:31;;;;;;;3.10;1.70;;;19.30;99.90;;;;;;1018567;29;20360;-73
2022/06/21 03:07:03;;;;;;;2.22;1.80;;;18.50;99.90;;;;;;1019957;29;20019;-73
2022/06/21 03:07:40;;;;;;;1.98;1.58;;;18.90;99.90;;;;;;1022734;28;20445;-73
2022/06/21 03:08:11;;;;;;;2.80;1.77;;;18.60;99.90;;;;;;1024352;28;20043;-73
2022/06/21 03:08:54;;;;;;;2.33;1.42;;;19.00;99.90;;;;;;1022612;28;20030;-73
2022/06/21 03:09:25;;;;;;;3.10;1.63;;;18.90;99.90;;;;;;1022559;29;20483;-73
2022/06/21 03:09:57;;;;;;;1.92;1.55;;;18.80;99.90;;;;;;1020044;29;20490;-73
2022/06/21 03:10:36;;;;;;;3.35;1.80;;;18.90;99.90;;;;;;1024484;28;20011;-73
2022/06/21 03:11:07;;;;;;;1.90;1.50;;;18.80;99.90;;;;;;1026660;28;20015;-73